createdAt,value
2023-02-18T00:04:47.077Z,31.75
2023-02-18T00:09:54.250Z,31.67
2023-02-18T00:15:01.427Z,31.69
2023-02-18T00:20:08.635Z,31.70
2023-02-18T00:25:15.787Z,31.64
2023-02-18T00:30:23.026Z,31.67
2023-02-18T00:35:30.264Z,31.62
2023-02-18T00:40:37.345Z,31.65
2023-02-18T00:45:44.521Z,31.53
2023-02-18T00:50:51.750Z,31.69
2023-02-18T00:55:58.892Z,31.66
2023-02-18T01:01:07.548Z,31.60
2023-02-18T01:06:13.505Z,32.23
2023-02-18T01:11:20.731Z,31.78
2023-02-18T01:16:27.919Z,31.75
2023-02-18T01:21:35.145Z,31.77
2023-02-18T01:26:42.221Z,31.74
2023-02-18T01:31:49.569Z,31.74
2023-02-18T01:36:56.821Z,31.81
2023-02-18T01:42:03.969Z,31.92
2023-02-18T01:47:11.152Z,32.04
2023-02-18T01:52:18.364Z,32.04
2023-02-18T01:57:25.522Z,32.13
2023-02-18T02:02:32.719Z,32.20
2023-02-18T02:07:39.899Z,32.23
2023-02-18T02:12:47.064Z,32.36
2023-02-18T02:17:54.281Z,32.37
2023-02-18T02:23:01.487Z,32.44
2023-02-18T02:28:08.723Z,32.49
2023-02-18T02:33:16.072Z,32.52
2023-02-18T02:38:23.308Z,32.56
2023-02-18T02:43:30.489Z,32.65
2023-02-18T02:48:37.730Z,32.70
2023-02-18T02:53:44.974Z,32.78
2023-02-18T02:58:52.144Z,32.81
2023-02-18T03:03:59.326Z,32.86
2023-02-18T03:09:06.535Z,32.88
2023-02-18T03:14:13.721Z,32.94
2023-02-18T03:19:20.912Z,32.97
2023-02-18T03:24:28.187Z,33.01
2023-02-18T03:29:35.326Z,33.01
2023-02-18T03:34:42.555Z,33.06
2023-02-18T03:39:49.767Z,33.10
2023-02-18T03:44:56.998Z,33.18
2023-02-18T03:50:04.213Z,33.19
2023-02-18T03:55:11.417Z,33.32
2023-02-18T04:00:18.563Z,33.39
2023-02-18T04:05:25.741Z,33.34
2023-02-18T04:10:32.962Z,33.40
2023-02-18T04:15:40.158Z,33.36
2023-02-18T04:20:47.398Z,33.31
2023-02-18T04:25:54.628Z,33.39
2023-02-18T04:31:01.986Z,33.43
2023-02-18T04:36:09.392Z,33.46
2023-02-18T04:41:16.286Z,33.45
2023-02-18T04:46:23.355Z,33.52
2023-02-18T04:51:30.505Z,33.49
2023-02-18T04:56:37.746Z,33.52
2023-02-18T05:01:44.922Z,33.52
2023-02-18T05:06:52.145Z,33.55
2023-02-18T05:11:59.367Z,33.58
2023-02-18T05:17:06.542Z,33.64
2023-02-18T05:22:13.910Z,33.62
2023-02-18T05:27:21.106Z,33.66
2023-02-18T05:32:28.286Z,33.70
2023-02-18T05:37:35.449Z,33.66
2023-02-18T05:42:42.700Z,33.71
2023-02-18T05:47:49.932Z,33.71
2023-02-18T05:52:57.120Z,33.67
2023-02-18T05:58:04.304Z,33.71
2023-02-18T06:03:11.438Z,33.71
2023-02-18T06:08:18.590Z,33.71
2023-02-18T06:13:25.787Z,33.74
2023-02-18T06:18:32.950Z,33.72
2023-02-18T06:23:40.222Z,33.72
2023-02-18T06:28:47.558Z,33.71
2023-02-18T06:33:54.603Z,33.73
2023-02-18T06:39:01.798Z,33.72
2023-02-18T06:44:09.009Z,33.75
2023-02-18T06:49:16.120Z,33.78
2023-02-18T06:54:23.325Z,33.78
2023-02-18T06:59:30.549Z,33.81
2023-02-18T07:04:37.689Z,33.81
2023-02-18T07:09:44.874Z,33.78
2023-02-18T07:14:52.085Z,33.84
2023-02-18T07:19:59.237Z,33.91
2023-02-18T07:25:06.456Z,34.00
2023-02-18T07:30:13.704Z,34.13
2023-02-18T07:35:20.858Z,33.93
2023-02-18T07:40:28.049Z,33.72
2023-02-18T07:45:35.357Z,33.55
2023-02-18T07:50:42.511Z,33.44
2023-02-18T07:55:49.797Z,33.37
2023-02-18T08:00:57.107Z,33.20
2023-02-18T08:06:04.240Z,33.55
2023-02-18T08:11:18.992Z,33.46
2023-02-18T08:16:18.727Z,33.29
2023-02-18T08:21:25.847Z,33.17
2023-02-18T08:26:33.098Z,33.03
2023-02-18T08:31:41.080Z,32.91
2023-02-18T08:36:47.573Z,32.81
2023-02-18T08:41:54.761Z,32.75
2023-02-18T08:47:02.087Z,32.65
2023-02-18T08:52:09.294Z,32.59
2023-02-18T08:57:16.478Z,32.53
2023-02-18T09:02:23.688Z,32.44
2023-02-18T09:07:30.933Z,32.39
2023-02-18T09:12:38.126Z,32.30
2023-02-18T09:17:45.360Z,32.22
2023-02-18T09:22:52.578Z,32.17
2023-02-18T09:27:59.792Z,32.13
2023-02-18T09:33:07.014Z,32.07
2023-02-18T09:38:14.149Z,32.26
2023-02-18T09:43:21.419Z,32.39
2023-02-18T09:48:28.628Z,32.51
2023-02-18T09:53:35.811Z,32.69
2023-02-18T09:58:42.979Z,32.65
2023-02-18T10:03:50.202Z,32.71
2023-02-18T10:08:57.363Z,32.79
2023-02-18T10:14:04.541Z,32.81
2023-02-18T10:19:11.765Z,32.72
2023-02-18T10:24:19.022Z,32.60
2023-02-18T10:29:26.211Z,32.56
2023-02-18T10:34:33.381Z,32.56
2023-02-18T10:39:40.780Z,32.48
2023-02-18T10:44:47.990Z,32.39
2023-02-18T10:49:55.244Z,32.65
2023-02-18T10:55:02.416Z,32.85
2023-02-18T11:00:09.588Z,32.62
2023-02-18T11:05:16.816Z,32.59
2023-02-18T11:10:23.972Z,32.68
2023-02-18T11:15:31.147Z,32.80
2023-02-18T11:20:38.352Z,32.77
2023-02-18T11:25:45.647Z,32.88
2023-02-18T11:30:52.917Z,32.72
2023-02-18T11:36:00.118Z,32.69
2023-02-18T11:41:07.784Z,32.81
2023-02-18T11:46:14.447Z,32.64
2023-02-18T11:51:21.708Z,32.62
2023-02-18T11:56:28.830Z,32.54
2023-02-18T12:01:36.127Z,32.72
2023-02-18T12:06:43.412Z,32.58
2023-02-18T12:11:50.660Z,32.50
2023-02-18T12:16:57.786Z,32.57
2023-02-18T12:22:04.983Z,32.43
2023-02-18T12:27:12.145Z,32.32
2023-02-18T12:32:19.376Z,32.34
2023-02-18T12:37:26.786Z,32.38
2023-02-18T12:42:34.089Z,32.38
2023-02-18T12:47:41.580Z,32.80
2023-02-18T12:52:49.222Z,33.00
2023-02-18T12:57:56.571Z,33.25
2023-02-18T13:03:04.070Z,33.55
2023-02-18T13:08:11.461Z,32.92
2023-02-18T13:13:18.536Z,33.73
2023-02-18T13:18:25.774Z,32.89
2023-02-18T13:23:32.999Z,33.60
2023-02-18T13:28:40.281Z,33.56
2023-02-18T13:33:47.643Z,33.71
2023-02-18T13:38:54.873Z,33.68
2023-02-18T13:44:02.223Z,33.56
2023-02-18T13:49:09.550Z,33.55
2023-02-18T13:54:17.130Z,33.68
2023-02-18T13:59:24.705Z,34.16
2023-02-18T14:04:32.331Z,34.33
2023-02-18T14:09:39.674Z,34.95
2023-02-18T14:14:47.126Z,34.87
2023-02-18T14:19:54.529Z,34.84
2023-02-18T14:25:01.751Z,34.84
2023-02-18T14:30:09.041Z,35.49
2023-02-18T14:35:16.266Z,35.82
2023-02-18T14:40:23.787Z,36.48
2023-02-18T14:45:31.130Z,36.29
2023-02-18T14:50:38.373Z,36.25
2023-02-18T14:55:45.646Z,36.87
2023-02-18T15:00:52.810Z,36.45
2023-02-18T15:05:59.985Z,36.61
2023-02-18T15:11:07.188Z,36.52
2023-02-18T15:16:14.703Z,36.66
2023-02-18T15:21:21.942Z,36.70
2023-02-18T15:26:29.453Z,37.07
2023-02-18T15:31:37.009Z,36.66
2023-02-18T15:36:44.090Z,36.62
2023-02-18T15:41:51.300Z,36.91
2023-02-18T15:46:58.435Z,37.09
2023-02-18T15:52:05.921Z,37.33
2023-02-18T15:57:13.396Z,37.48
2023-02-18T16:02:20.988Z,37.13
2023-02-18T16:07:28.711Z,37.19
2023-02-18T16:12:36.344Z,37.06
2023-02-18T16:17:43.709Z,36.73
2023-02-18T16:22:51.141Z,36.97
2023-02-18T16:27:58.581Z,36.80
2023-02-18T16:33:05.846Z,36.52
2023-02-18T16:38:13.291Z,36.40
2023-02-18T16:43:20.913Z,36.43
2023-02-18T16:48:28.592Z,36.31
2023-02-18T16:53:36.069Z,36.37
2023-02-18T16:58:43.640Z,36.18
2023-02-18T17:03:51.449Z,36.43
2023-02-18T17:08:59.156Z,36.07
2023-02-18T17:14:06.898Z,36.05
2023-02-18T17:19:14.316Z,35.94
2023-02-18T17:24:21.899Z,35.80
2023-02-18T17:29:29.539Z,35.81
2023-02-18T17:34:37.151Z,35.68
2023-02-18T17:39:44.433Z,35.68
2023-02-18T17:44:51.996Z,35.82
2023-02-18T17:49:59.561Z,35.91
2023-02-18T17:55:07.193Z,35.99
2023-02-18T18:00:14.935Z,36.02
2023-02-18T18:05:22.511Z,36.00
2023-02-18T18:10:30.125Z,36.00
2023-02-18T18:15:37.760Z,36.03
2023-02-18T18:20:45.168Z,35.99
2023-02-18T18:25:52.653Z,35.97
2023-02-18T18:31:00.317Z,36.01
2023-02-18T18:36:08.310Z,36.00
2023-02-18T18:41:15.402Z,36.05
2023-02-18T18:46:23.008Z,36.13
2023-02-18T18:51:30.544Z,35.87
2023-02-18T18:56:39.281Z,36.07
2023-02-18T19:01:46.710Z,35.86
2023-02-18T19:06:54.108Z,35.84
2023-02-18T19:12:01.700Z,35.73
2023-02-18T19:17:09.101Z,35.57
2023-02-18T19:22:16.605Z,35.42
2023-02-18T19:27:24.243Z,35.55
2023-02-18T19:32:31.876Z,35.55
2023-02-18T19:37:39.463Z,35.46
2023-02-18T19:42:47.287Z,35.44
2023-02-18T19:47:54.758Z,35.36
2023-02-18T19:53:02.012Z,35.25
2023-02-18T19:58:09.521Z,35.24
2023-02-18T20:03:16.898Z,35.44
2023-02-18T20:08:24.344Z,35.16
2023-02-18T20:13:31.690Z,35.26
2023-02-18T20:18:39.179Z,35.32
2023-02-18T20:23:46.773Z,35.08
2023-02-18T20:28:54.390Z,35.18
2023-02-18T20:34:02.031Z,35.02
2023-02-18T20:39:16.203Z,34.92
2023-02-18T20:44:16.922Z,35.19
2023-02-18T20:49:25.068Z,34.94
2023-02-18T20:54:32.454Z,35.10
2023-02-18T20:59:40.084Z,35.02
2023-02-18T21:04:47.432Z,34.92
2023-02-18T21:09:54.614Z,34.93
2023-02-18T21:15:02.105Z,34.71
2023-02-18T21:20:09.744Z,34.83
2023-02-18T21:25:16.957Z,34.71
2023-02-18T21:30:24.584Z,34.58
2023-02-18T21:35:32.169Z,34.50
2023-02-18T21:40:40.667Z,34.34
2023-02-18T21:45:48.185Z,34.31
2023-02-18T21:50:55.649Z,34.11
2023-02-18T21:56:03.993Z,33.95
2023-02-18T22:01:10.666Z,33.89
2023-02-18T22:06:17.665Z,33.84
2023-02-18T22:11:24.922Z,33.64
2023-02-18T22:16:32.220Z,33.40
2023-02-18T22:21:39.308Z,33.33
2023-02-18T22:26:46.507Z,33.08
2023-02-18T22:31:53.827Z,33.17
2023-02-18T22:37:00.858Z,32.78
2023-02-18T22:42:08.028Z,32.89
2023-02-18T22:47:15.193Z,32.82
2023-02-18T22:52:22.520Z,32.70
2023-02-18T22:57:29.664Z,32.73
2023-02-18T23:02:36.876Z,33.04
2023-02-18T23:07:44.094Z,32.48
2023-02-18T23:12:51.396Z,32.49
2023-02-18T23:17:58.627Z,32.30
2023-02-18T23:23:05.830Z,32.23
2023-02-18T23:28:12.986Z,32.27
2023-02-18T23:33:20.270Z,32.34
2023-02-18T23:38:27.567Z,32.34
2023-02-18T23:43:34.744Z,32.28
2023-02-18T23:48:41.945Z,32.11
2023-02-18T23:53:49.134Z,31.89
2023-02-18T23:58:56.286Z,31.96
